Time;durP1;ratioP1;P1;durP2;ratioP2;P2;SDS_P1;SDS_P2;PMS_P1;PMS_P2;Temp;Humidity;BMP_temperature;BMP_pressure;BME280_temperature;BME280_humidity;BME280_pressure;Samples;Min_cycle;Max_cycle;Signal;HPM_P1;HPM_P2
2022/01/27 00:06:07;;;;;;;20.48;8.15;;;;;;;-0.12;98.23;100741.19;4483480;31;34603;-76
2022/01/27 00:08:59;;;;;;;23.08;10.07;;;;;;;0.23;97.04;100741.66;4487063;31;34846;-77
2022/01/27 00:11:47;;;;;;;22.58;8.75;;;;;;;0.27;94.82;100742.88;4479551;31;34558;-77
2022/01/27 00:14:34;;;;;;;20.48;8.70;;;;;;;0.47;95.12;100747.31;4478420;31;35039;-77
2022/01/27 00:17:28;;;;;;;24.55;8.23;;;;;;;0.31;93.93;100751.34;4478778;31;35329;-77
2022/01/27 00:20:15;;;;;;;22.15;9.30;;;;;;;0.60;92.93;100744.56;4484378;31;35275;-77
2022/01/27 00:23:01;;;;;;;24.48;9.75;;;;;;;0.40;93.95;100742.00;4483439;31;33849;-77
2022/01/27 00:25:48;;;;;;;22.85;8.93;;;;;;;0.86;91.68;100741.66;4483403;31;35048;-77
2022/01/27 00:28:34;;;;;;;24.12;9.25;;;;;;;0.99;88.60;100735.28;4482169;31;34622;-76
2022/01/27 00:31:22;;;;;;;20.92;9.30;;;;;;;0.85;89.70;100718.41;4452036;31;34957;-77
2022/01/27 00:34:08;;;;;;;21.95;10.30;;;;;;;0.22;93.94;100731.91;4464938;31;35246;-76
2022/01/27 00:36:54;;;;;;;25.73;10.85;;;;;;;-0.08;94.96;100735.19;4485858;31;35974;-77
2022/01/27 00:39:41;;;;;;;22.95;9.57;;;;;;;-0.09;95.40;100738.87;4482363;31;35439;-76
2022/01/27 00:42:28;;;;;;;25.12;9.85;;;;;;;-0.10;95.72;100739.13;4479568;31;34185;-77
2022/01/27 00:45:15;;;;;;;23.17;9.35;;;;;;;-0.10;95.33;100734.56;4485028;31;33530;-76
2022/01/27 00:48:04;;;;;;;23.45;8.68;;;;;;;-0.06;95.77;100735.81;4480506;31;35023;-77
2022/01/27 00:51:00;;;;;;;24.23;9.50;;;;;;;0.35;93.21;100739.94;4486914;31;35242;-77
2022/01/27 00:53:54;;;;;;;20.00;9.35;;;;;;;0.05;94.94;100750.44;4477546;31;34132;-77
2022/01/27 00:56:56;;;;;;;26.67;11.27;;;;;;;-0.01;94.39;100744.03;4483345;31;34358;-77
2022/01/27 00:59:57;;;;;;;22.15;8.65;;;;;;;0.12;93.59;100745.03;4496214;31;35780;-77
2022/01/27 01:02:54;;;;;;;23.85;9.68;;;;;;;0.11;93.73;100737.97;4478424;31;33530;-77
2022/01/27 01:14:40;;;;;;;22.10;9.60;;;;;;;0.48;91.17;100730.09;4486794;31;34868;-77
2022/01/27 01:17:37;;;;;;;26.30;9.80;;;;;;;0.16;92.79;100724.69;4480418;31;33894;-77
2022/01/27 01:20:34;;;;;;;24.52;10.25;;;;;;;0.61;90.55;100711.94;4483618;31;35622;-77
2022/01/27 01:32:58;;;;;;;21.83;9.55;;;;;;;-0.13;93.46;100709.91;4496162;31;35580;-77
2022/01/27 01:35:47;;;;;;;23.35;10.15;;;;;;;-0.17;94.02;100708.69;4485995;31;34926;-77
2022/01/27 01:38:33;;;;;;;20.42;9.30;;;;;;;-0.06;93.42;100708.84;4480635;31;34567;-77
2022/01/27 01:41:20;;;;;;;20.50;9.50;;;;;;;0.00;92.98;100704.47;4482087;31;33784;-78
2022/01/27 01:44:07;;;;;;;24.40;10.40;;;;;;;-0.05;92.45;100705.09;4469457;31;34196;-77
2022/01/27 01:46:54;;;;;;;25.52;12.00;;;;;;;0.06;92.83;100695.53;4476778;31;35890;-77
2022/01/27 01:49:40;;;;;;;28.48;10.68;;;;;;;-0.20;93.14;100691.06;4473500;31;34579;-77
2022/01/27 01:52:27;;;;;;;21.58;9.70;;;;;;;-0.15;93.17;100696.66;4483776;31;34718;-77
2022/01/27 01:55:13;;;;;;;24.20;9.77;;;;;;;-0.04;92.59;100695.16;4492897;31;35554;-77
2022/01/27 01:58:00;;;;;;;21.20;9.65;;;;;;;0.06;92.34;100697.38;4480930;31;33653;-77
2022/01/27 02:00:47;;;;;;;25.75;10.95;;;;;;;0.00;92.67;100704.47;4480723;31;34293;-77
2022/01/27 02:03:33;;;;;;;24.12;10.00;;;;;;;-0.02;92.18;100707.38;4483326;31;35132;-77
2022/01/27 02:06:33;;;;;;;20.35;9.23;;;;;;;0.10;92.00;100712.91;4490568;31;35101;-77
2022/01/27 02:18:20;;;;;;;24.10;10.38;;;;;;;0.01;92.38;100705.28;4482493;31;34700;-77
2022/01/27 02:21:06;;;;;;;23.92;9.65;;;;;;;0.11;92.00;100689.47;4491906;31;35158;-77
2022/01/27 02:23:52;;;;;;;23.12;10.45;;;;;;;0.02;91.92;100675.44;4493022;31;34598;-79
2022/01/27 02:26:40;;;;;;;17.33;8.27;;;;;;;0.02;91.86;100670.03;4485353;31;34273;-77
2022/01/27 02:29:27;;;;;;;25.85;10.80;;;;;;;0.15;91.67;100669.16;4480604;31;34179;-79
2022/01/27 02:32:14;;;;;;;23.12;9.80;;;;;;;0.06;91.31;100675.81;4481386;31;34997;-78
2022/01/27 02:35:01;;;;;;;23.10;9.15;;;;;;;0.21;90.83;100666.41;4477519;31;34543;-78
2022/01/27 02:37:48;;;;;;;22.50;9.88;;;;;;;-0.03;91.97;100668.00;4489618;31;35031;-78
2022/01/27 02:40:49;;;;;;;21.67;9.15;;;;;;;0.26;90.95;100663.06;4485288;31;35506;-78
2022/01/27 02:43:35;;;;;;;23.25;9.02;;;;;;;0.37;90.87;100650.72;4483783;31;35013;-77
2022/01/27 02:46:26;;;;;;;23.55;9.82;;;;;;;0.23;90.44;100639.25;4481367;31;35475;-78
2022/01/27 02:49:12;;;;;;;24.80;9.63;;;;;;;0.22;90.42;100648.34;4483616;31;35063;-77
2022/01/27 02:51:59;;;;;;;22.73;10.98;;;;;;;0.13;91.13;100641.56;4481657;31;34600;-77
2022/01/27 02:54:45;;;;;;;21.33;10.43;;;;;;;0.08;90.77;100646.78;4492021;31;35064;-77
2022/01/27 02:57:41;;;;;;;23.60;10.05;;;;;;;0.21;89.90;100647.53;4481068;31;34553;-77
2022/01/27 03:00:28;;;;;;;20.27;9.73;;;;;;;0.20;89.84;100640.50;4464154;31;34107;-77
2022/01/27 03:03:14;;;;;;;23.05;12.30;;;;;;;0.18;89.81;100647.16;4475096;31;35277;-76
2022/01/27 03:06:01;;;;;;;21.02;10.57;;;;;;;0.05;90.58;100636.44;4482498;31;34962;-77
2022/01/27 03:08:47;;;;;;;22.65;9.90;;;;;;;0.11;90.36;100646.34;4482885;31;35418;-77
2022/01/27 03:11:44;;;;;;;23.33;8.68;;;;;;;0.11;90.27;100649.03;4491266;31;34322;-77
2022/01/27 03:14:31;;;;;;;22.33;9.35;;;;;;;0.40;89.21;100653.84;4482015;31;34602;-77
2022/01/27 03:17:17;;;;;;;21.80;8.27;;;;;;;0.23;89.54;100666.19;4475662;31;35009;-77
2022/01/27 03:20:04;;;;;;;25.15;9.55;;;;;;;0.62;88.22;100664.22;4478454;31;35520;-77
2022/01/27 03:22:50;;;;;;;19.58;9.27;;;;;;;0.34;89.40;100662.81;4477403;31;35040;-77
2022/01/27 03:25:37;;;;;;;20.83;10.07;;;;;;;0.07;90.00;100661.31;4491353;31;34448;-77
2022/01/27 03:28:27;;;;;;;23.73;10.50;;;;;;;0.10;89.95;100661.69;4476820;31;34998;-78
2022/01/27 03:31:14;;;;;;;23.60;11.38;;;;;;;-0.02;89.64;100664.25;4462940;31;34642;-77
2022/01/27 03:34:01;;;;;;;20.40;9.93;;;;;;;0.07;88.87;100659.44;4476353;31;34174;-77
2022/01/27 03:36:47;;;;;;;20.30;10.85;;;;;;;0.04;88.57;100659.06;4481301;31;34176;-80
2022/01/27 03:39:36;;;;;;;23.05;9.80;;;;;;;0.02;88.12;100653.87;4475933;31;35043;-79
2022/01/27 03:42:23;;;;;;;23.42;11.40;;;;;;;0.09;87.79;100653.84;4496624;31;35554;-76
2022/01/27 03:45:10;;;;;;;21.50;9.32;;;;;;;0.04;88.18;100645.59;4487516;31;35254;-77
2022/01/27 03:47:56;;;;;;;22.17;11.60;;;;;;;0.21;87.72;100641.31;4485701;31;35435;-77
2022/01/27 03:50:43;;;;;;;22.58;8.27;;;;;;;0.10;87.65;100642.84;4462635;31;35943;-77
2022/01/27 03:53:30;;;;;;;21.25;9.45;;;;;;;0.08;87.78;100636.00;4482866;31;34595;-78
2022/01/27 03:56:16;;;;;;;23.75;10.88;;;;;;;0.09;87.33;100621.50;4479843;31;34209;-78
2022/01/27 03:59:03;;;;;;;20.30;10.18;;;;;;;0.02;87.73;100631.50;4494569;31;34599;-79
2022/01/27 04:01:49;;;;;;;23.00;8.77;;;;;;;0.07;87.19;100623.59;4483055;31;35949;-78
2022/01/27 04:04:36;;;;;;;21.10;10.27;;;;;;;0.11;87.12;100625.59;4478593;31;34847;-78
2022/01/27 04:07:22;;;;;;;21.58;10.80;;;;;;;0.03;86.83;100615.12;4484750;31;35274;-78
2022/01/27 04:10:09;;;;;;;20.50;9.57;;;;;;;0.03;86.93;100623.22;4478374;31;34698;-77
2022/01/27 04:12:55;;;;;;;21.60;10.02;;;;;;;-0.04;87.60;100639.41;4477793;31;34932;-78
2022/01/27 04:15:43;;;;;;;20.83;10.13;;;;;;;0.07;86.96;100624.41;4469404;31;34614;-79
2022/01/27 04:18:30;;;;;;;18.67;8.40;;;;;;;-0.03;87.31;100629.44;4470744;31;35187;-79
2022/01/27 04:21:17;;;;;;;20.83;9.13;;;;;;;0.03;87.40;100622.34;4494246;31;34221;-78
2022/01/27 04:24:04;;;;;;;20.30;11.48;;;;;;;-0.06;87.28;100632.56;4477178;31;37411;-77
2022/01/27 04:27:03;;;;;;;21.05;8.85;;;;;;;-0.08;87.13;100635.50;4477972;31;36116;-78
2022/01/27 04:29:50;;;;;;;20.90;9.50;;;;;;;-0.12;87.41;100630.75;4485599;31;34247;-77
2022/01/27 04:32:43;;;;;;;21.20;9.32;;;;;;;-0.12;87.53;100636.94;4486450;31;35165;-78
2022/01/27 04:35:33;;;;;;;18.98;10.18;;;;;;;0.01;87.19;100629.84;4480455;31;34945;-79
2022/01/27 04:38:28;;;;;;;20.27;7.75;;;;;;;-0.17;87.32;100623.31;4479775;31;35510;-78
2022/01/27 04:41:21;;;;;;;21.62;10.63;;;;;;;-0.04;86.76;100625.91;4486634;31;34533;-79
2022/01/27 04:47:11;;;;;;;20.37;9.57;;;;;;;0.03;86.42;100622.34;4491813;31;35898;-78
2022/01/27 04:49:58;;;;;;;21.77;10.23;;;;;;;-0.03;86.44;100637.53;4482799;31;34568;-77
2022/01/27 04:52:47;;;;;;;22.52;12.37;;;;;;;-0.02;86.62;100628.41;4476463;31;34166;-78
2022/01/27 04:55:34;;;;;;;22.80;11.02;;;;;;;0.02;86.26;100636.87;4491705;31;34601;-78
2022/01/27 04:58:28;;;;;;;20.75;10.65;;;;;;;0.05;86.41;100637.25;4479435;31;34995;-80
2022/01/27 05:01:17;;;;;;;21.55;10.57;;;;;;;-0.02;86.44;100637.31;4477406;31;35605;-79
2022/01/27 05:04:09;;;;;;;18.62;11.00;;;;;;;-0.03;86.60;100630.28;4482009;31;35273;-78
2022/01/27 05:06:56;;;;;;;22.62;10.15;;;;;;;-0.06;86.77;100630.72;4479861;31;35501;-77
2022/01/27 05:09:51;;;;;;;19.92;9.85;;;;;;;-0.06;87.06;100636.13;4486674;31;35941;-78
2022/01/27 05:15:26;;;;;;;18.20;9.00;;;;;;;0.08;86.38;100615.28;4471448;31;32839;-80
2022/01/27 05:18:15;;;;;;;22.17;9.65;;;;;;;0.09;86.27;100613.44;4491561;31;35598;-78
2022/01/27 05:21:02;;;;;;;23.33;9.65;;;;;;;0.19;86.37;100616.44;4462249;31;35802;-78
2022/01/27 05:23:49;;;;;;;21.55;10.52;;;;;;;0.08;86.72;100623.34;4470866;31;34579;-78
2022/01/27 05:26:35;;;;;;;20.35;9.88;;;;;;;0.14;86.21;100625.19;4495300;31;34251;-78
2022/01/27 05:29:22;;;;;;;23.55;12.60;;;;;;;0.07;86.56;100623.59;4475248;31;34977;-78
2022/01/27 05:32:08;;;;;;;20.20;11.45;;;;;;;-0.05;87.06;100626.16;4494211;31;35004;-78
2022/01/27 05:34:55;;;;;;;21.80;9.55;;;;;;;-0.02;86.94;100631.94;4464725;31;34272;-78
2022/01/27 05:37:41;;;;;;;23.12;9.77;;;;;;;0.02;87.36;100626.09;4487172;31;34164;-78
2022/01/27 05:40:28;;;;;;;23.25;10.02;;;;;;;0.28;86.17;100620.50;4477011;31;34564;-79
2022/01/27 05:43:14;;;;;;;22.70;10.32;;;;;;;0.09;86.61;100621.50;4482114;31;35939;-75
2022/01/27 05:46:00;;;;;;;20.40;9.25;;;;;;;0.01;87.20;100613.69;4476451;31;35383;-74
2022/01/27 05:48:47;;;;;;;20.75;9.63;;;;;;;0.09;86.69;100608.03;4467233;31;32945;-75
2022/01/27 05:51:33;;;;;;;18.08;9.82;;;;;;;-0.02;87.46;100612.25;4474955;31;34542;-77
2022/01/27 05:54:21;;;;;;;20.98;9.57;;;;;;;0.02;87.24;100616.16;4489542;31;34744;-77
2022/01/27 05:57:07;;;;;;;22.13;11.93;;;;;;;0.00;87.69;100607.47;4457773;31;34383;-77
2022/01/27 05:59:54;;;;;;;20.85;12.50;;;;;;;0.00;87.29;100615.56;4474042;31;32786;-75
2022/01/27 06:02:40;;;;;;;25.88;10.10;;;;;;;0.05;86.96;100604.09;4470191;31;34688;-75
2022/01/27 06:05:27;;;;;;;23.65;11.27;;;;;;;0.14;87.10;100597.41;4474278;31;34633;-75
2022/01/27 06:08:14;;;;;;;20.67;9.18;;;;;;;0.04;87.75;100599.78;4466516;31;34621;-74
2022/01/27 06:11:01;;;;;;;22.58;11.68;;;;;;;0.19;87.38;100600.28;4466261;31;35218;-77
2022/01/27 06:13:48;;;;;;;23.20;11.07;;;;;;;0.03;87.90;100592.72;4493160;31;34496;-76
2022/01/27 06:16:35;;;;;;;20.83;10.27;;;;;;;0.07;87.98;100602.84;4471448;31;34870;-76
2022/01/27 06:19:26;;;;;;;21.42;10.45;;;;;;;0.10;88.23;100596.19;4478774;31;34656;-75
2022/01/27 06:22:13;;;;;;;22.10;9.93;;;;;;;0.14;87.82;100592.00;4482500;31;34350;-75
2022/01/27 06:25:00;;;;;;;26.50;12.43;;;;;;;0.13;88.20;100595.75;4468632;31;34682;-76
2022/01/27 06:27:47;;;;;;;26.85;11.85;;;;;;;0.27;87.20;100588.41;4458221;31;33686;-77
2022/01/27 06:30:36;;;;;;;25.05;12.73;;;;;;;0.11;88.05;100614.00;4481281;31;34689;-77
2022/01/27 06:33:25;;;;;;;;;;;;;;;0.02;88.75;100605.38;4480020;31;34329;-76
2022/01/27 06:36:11;;;;;;;24.17;9.80;;;;;;;0.02;88.54;100610.75;4476684;31;35024;-76
2022/01/27 06:38:58;;;;;;;23.83;10.25;;;;;;;0.36;88.17;100611.34;4459697;31;35003;-77
2022/01/27 06:41:45;;;;;;;26.77;12.35;;;;;;;0.39;87.74;100630.59;4462077;31;34346;-77
2022/01/27 06:44:31;;;;;;;24.17;12.88;;;;;;;0.29;88.15;100627.56;4475150;31;34734;-76
2022/01/27 06:47:18;;;;;;;26.12;11.07;;;;;;;0.11;88.49;100633.69;4487515;31;35441;-77
2022/01/27 06:50:06;;;;;;;23.75;11.32;;;;;;;0.38;87.41;100637.03;4488835;31;35956;-75
2022/01/27 06:52:52;;;;;;;28.35;13.23;;;;;;;0.12;88.25;100642.62;4475922;31;34808;-74
2022/01/27 06:55:38;;;;;;;25.83;13.25;;;;;;;0.12;88.45;100648.03;4477944;31;35383;-75
2022/01/27 06:58:25;;;;;;;27.48;11.93;;;;;;;0.12;88.55;100648.84;4491598;31;34567;-75
2022/01/27 07:01:12;;;;;;;24.65;11.82;;;;;;;0.10;89.05;100660.87;4475597;31;33795;-75
2022/01/27 07:03:58;;;;;;;26.35;12.85;;;;;;;0.47;87.94;100655.66;4464289;31;34659;-76
2022/01/27 07:06:45;;;;;;;27.45;11.02;;;;;;;0.10;88.81;100647.41;4490311;31;34427;-75
2022/01/27 07:09:31;;;;;;;24.52;11.07;;;;;;;0.27;88.55;100640.44;4479407;31;35054;-76
2022/01/27 07:12:18;;;;;;;24.87;12.18;;;;;;;0.36;87.87;100649.91;4485723;31;34958;-76
2022/01/27 07:15:05;;;;;;;22.40;11.05;;;;;;;0.19;88.53;100646.09;4487874;31;34320;-83
2022/01/27 07:17:55;;;;;;;20.23;9.60;;;;;;;0.24;87.73;100646.28;4479477;31;34164;-79
2022/01/27 07:20:42;;;;;;;26.50;11.65;;;;;;;0.44;86.62;100638.03;4473207;31;34645;-79
2022/01/27 07:23:29;;;;;;;26.10;12.02;;;;;;;0.38;87.17;100647.81;4478780;31;34709;-79
2022/01/27 07:26:15;;;;;;;24.73;11.23;;;;;;;0.27;87.43;100642.31;4477408;31;34617;-79
2022/01/27 07:29:02;;;;;;;22.48;10.00;;;;;;;0.32;87.64;100631.72;4482283;31;35220;-79
2022/01/27 07:31:49;;;;;;;24.52;11.12;;;;;;;0.40;86.71;100634.97;4477831;31;34563;-79
2022/01/27 07:34:35;;;;;;;22.70;11.25;;;;;;;0.35;86.91;100621.31;4490619;31;35699;-79
2022/01/27 07:37:21;;;;;;;21.02;9.55;;;;;;;0.25;86.93;100620.94;4485490;31;34160;-80
2022/01/27 07:40:10;;;;;;;22.00;10.10;;;;;;;0.44;86.32;100614.59;4486160;31;34290;-81
2022/01/27 07:42:56;;;;;;;24.25;11.12;;;;;;;0.28;86.42;100625.91;4466362;31;34656;-80
2022/01/27 07:45:42;;;;;;;22.87;10.77;;;;;;;0.42;86.17;100608.56;4459668;31;35949;-80
2022/01/27 07:48:29;;;;;;;25.40;12.30;;;;;;;0.42;85.77;100605.06;4451252;31;34448;-80
2022/01/27 07:51:16;;;;;;;26.98;10.98;;;;;;;0.40;85.78;100604.47;4493065;31;34376;-80
2022/01/27 07:54:02;;;;;;;20.70;9.48;;;;;;;0.36;85.99;100606.75;4493502;31;34706;-81
2022/01/27 07:56:51;;;;;;;24.90;12.48;;;;;;;0.61;84.84;100603.25;4493274;31;36420;-82
2022/01/27 07:59:37;;;;;;;21.27;9.65;;;;;;;0.43;85.23;100595.94;4487424;31;36724;-82
2022/01/27 08:02:24;;;;;;;19.90;8.88;;;;;;;0.62;84.45;100603.00;4490073;31;34607;-83
2022/01/27 08:05:12;;;;;;;20.20;9.02;;;;;;;0.77;84.25;100597.28;4491404;31;34629;-83
2022/01/27 08:07:59;;;;;;;20.67;10.98;;;;;;;0.62;84.58;100600.31;4479347;31;33937;-83
2022/01/27 08:10:45;;;;;;;23.55;10.70;;;;;;;0.49;84.80;100594.25;4477028;31;34420;-83
2022/01/27 08:13:31;;;;;;;23.30;10.70;;;;;;;0.53;85.05;100601.66;4485227;31;35110;-82
2022/01/27 08:16:18;;;;;;;27.05;13.40;;;;;;;0.70;84.62;100598.41;4492054;31;34869;-81
2022/01/27 08:19:05;;;;;;;26.00;12.70;;;;;;;0.77;83.98;100582.94;4479649;31;36028;-81
2022/01/27 08:21:51;;;;;;;22.35;10.10;;;;;;;0.78;83.74;100592.72;4489047;31;35224;-82
2022/01/27 08:24:38;;;;;;;20.62;10.43;;;;;;;1.04;82.73;100597.81;4490562;31;34176;-83
2022/01/27 08:27:29;;;;;;;20.45;9.70;;;;;;;1.06;81.63;100597.59;4476970;31;35578;-82
2022/01/27 08:30:18;;;;;;;21.30;9.63;;;;;;;1.39;81.13;100604.47;4489957;31;35025;-82
2022/01/27 08:33:05;;;;;;;20.42;11.65;;;;;;;1.21;81.61;100608.03;4479909;31;34640;-83
2022/01/27 08:35:52;;;;;;;20.08;9.23;;;;;;;0.81;83.20;100603.06;4469913;31;168422;-82
2022/01/27 08:38:43;;;;;;;22.42;10.90;;;;;;;0.85;83.43;100594.31;4480398;31;34601;-82
2022/01/27 08:41:29;;;;;;;20.93;10.00;;;;;;;1.07;82.80;100583.88;4491513;31;34944;-84
2022/01/27 08:44:16;;;;;;;21.98;10.15;;;;;;;1.12;81.77;100591.31;4489152;31;34735;-82
2022/01/27 08:47:03;;;;;;;21.37;9.90;;;;;;;1.09;81.76;100578.25;4477469;31;35318;-83
2022/01/27 08:49:49;;;;;;;20.95;7.78;;;;;;;1.23;81.72;100579.75;4479166;31;34451;-83
2022/01/27 08:52:36;;;;;;;23.65;9.13;;;;;;;1.42;80.39;100599.44;4484961;31;36001;-81
2022/01/27 08:55:23;;;;;;;20.98;10.00;;;;;;;1.62;79.39;100591.06;4477730;31;35510;-81
2022/01/27 08:58:09;;;;;;;19.20;8.93;;;;;;;1.44;79.51;100596.53;4474445;31;34142;-84
2022/01/27 09:00:56;;;;;;;17.48;10.20;;;;;;;1.33;79.80;100600.81;4474345;31;34685;-83
2022/01/27 09:03:43;;;;;;;21.62;10.07;;;;;;;1.37;78.56;100590.38;4489372;31;36267;-81
2022/01/27 09:06:29;;;;;;;20.65;9.35;;;;;;;1.20;79.25;100596.41;4493130;31;34830;-81
2022/01/27 09:09:15;;;;;;;19.27;8.80;;;;;;;1.24;80.02;100592.19;4489659;31;34228;-81
2022/01/27 09:12:02;;;;;;;24.17;11.07;;;;;;;1.49;80.00;100591.28;4490058;31;34654;-79
2022/01/27 09:14:49;;;;;;;22.13;10.77;;;;;;;1.40;79.45;100589.94;4476011;31;35955;-80
2022/01/27 09:17:40;;;;;;;31.62;12.32;;;;;;;1.47;79.64;100590.66;4480244;31;35575;-82
2022/01/27 09:20:27;;;;;;;17.45;8.25;;;;;;;1.72;78.29;100599.47;4480017;31;34878;-81
2022/01/27 09:23:14;;;;;;;24.12;9.90;;;;;;;1.62;78.10;100609.16;4487831;31;35523;-80
2022/01/27 09:26:07;;;;;;;17.48;9.00;;;;;;;1.74;77.99;100600.06;4474291;31;36060;-80
2022/01/27 09:28:54;;;;;;;16.87;8.70;;;;;;;1.33;78.26;100607.03;4476036;31;34688;-81
2022/01/27 09:31:41;;;;;;;20.48;8.77;;;;;;;1.62;77.86;100601.88;4484997;31;34382;-82
2022/01/27 09:34:31;;;;;;;18.62;8.40;;;;;;;1.92;76.82;100604.59;4475707;31;34461;-81
2022/01/27 09:37:19;;;;;;;15.73;7.60;;;;;;;1.96;75.99;100605.81;4473107;31;35001;-80
2022/01/27 09:40:07;;;;;;;20.15;8.98;;;;;;;1.62;76.94;100609.97;4476172;31;33649;-82
2022/01/27 09:42:54;;;;;;;15.77;7.03;;;;;;;1.97;76.57;100601.22;4484728;31;34923;-81
2022/01/27 09:45:41;;;;;;;20.33;8.77;;;;;;;1.70;76.60;100595.34;4478113;31;34680;-81
2022/01/27 09:48:35;;;;;;;20.67;10.70;;;;;;;1.74;77.16;100591.16;4474921;31;34958;-83
2022/01/27 09:54:08;;;;;;;20.10;9.60;;;;;;;1.80;76.57;100591.03;4478307;31;34015;-82
2022/01/27 09:56:56;;;;;;;19.55;9.32;;;;;;;1.52;77.48;100593.50;4489940;31;34809;-80
2022/01/27 09:59:43;;;;;;;22.42;8.65;;;;;;;2.07;76.63;100596.03;4485119;31;35015;-80
2022/01/27 10:02:30;;;;;;;18.08;8.63;;;;;;;2.28;74.98;100608.22;4480993;31;35597;-81
2022/01/27 10:05:24;;;;;;;18.17;8.88;;;;;;;1.93;75.46;100594.59;4490989;31;35043;-82
2022/01/27 10:08:15;;;;;;;20.15;9.18;;;;;;;2.21;75.23;100586.66;4491128;31;35309;-82
2022/01/27 10:11:12;;;;;;;15.80;7.80;;;;;;;2.30;73.73;100580.94;4475248;31;34459;-81
2022/01/27 10:13:59;;;;;;;20.08;8.65;;;;;;;2.06;75.11;100574.66;4484771;31;35206;-81
2022/01/27 10:16:46;;;;;;;18.95;8.63;;;;;;;2.18;74.84;100565.50;4476457;31;33703;-80
2022/01/27 10:19:35;;;;;;;24.40;10.52;;;;;;;2.03;75.54;100557.84;4494150;31;35521;-80
2022/01/27 10:22:22;;;;;;;21.12;10.32;;;;;;;1.94;75.91;100555.72;4483477;31;35058;-83
2022/01/27 10:25:20;;;;;;;26.08;10.77;;;;;;;2.28;75.44;100546.03;4474957;31;34595;-82
2022/01/27 10:28:22;;;;;;;19.35;8.95;;;;;;;2.45;73.64;100535.34;4471030;31;33715;-80
2022/01/27 10:31:11;;;;;;;22.52;10.70;;;;;;;2.52;73.89;100533.31;4489618;31;35530;-80
2022/01/27 10:34:02;;;;;;;28.38;13.73;;;;;;;2.82;73.04;100526.94;4482657;31;34533;-80
2022/01/27 10:36:49;;;;;;;24.48;9.82;;;;;;;2.67;73.58;100533.66;4471706;31;35813;-81
2022/01/27 10:39:35;;;;;;;22.20;10.18;;;;;;;3.19;71.10;100526.59;4491887;31;34403;-80
2022/01/27 10:42:23;;;;;;;17.10;9.00;;;;;;;2.81;71.41;100519.88;4484688;31;34578;-80
2022/01/27 10:45:14;;;;;;;22.37;10.35;;;;;;;2.48;72.42;100510.50;4479682;31;34999;-79
2022/01/27 10:48:10;;;;;;;19.95;9.85;;;;;;;2.61;72.92;100506.72;4487241;31;35454;-79
2022/01/27 10:51:02;;;;;;;20.45;8.85;;;;;;;2.64;72.48;100501.66;4483051;31;34149;-80
2022/01/27 10:56:48;;;;;;;17.52;8.50;;;;;;;3.52;68.85;100488.78;4481196;31;35566;-80
2022/01/27 10:59:35;;;;;;;22.00;10.65;;;;;;;3.58;68.17;100484.28;4474932;31;34558;-83
2022/01/27 11:02:21;;;;;;;20.75;8.55;;;;;;;2.88;70.38;100501.63;4470897;31;34678;-81
2022/01/27 11:05:25;;;;;;;23.48;8.85;;;;;;;3.18;69.83;100489.75;4473173;31;35716;-82
2022/01/27 11:08:11;;;;;;;19.00;8.35;;;;;;;3.35;69.20;100496.03;4470376;31;35489;-81
2022/01/27 11:10:58;;;;;;;20.02;8.07;;;;;;;3.15;69.64;100483.75;4473423;31;34633;-82
2022/01/27 11:13:46;;;;;;;17.98;8.15;;;;;;;3.11;69.77;100482.59;4484349;31;34169;-81
2022/01/27 11:16:41;;;;;;;22.55;9.75;;;;;;;3.33;68.71;100471.94;4474520;31;34609;-82
2022/01/27 11:28:05;;;;;;;21.90;8.98;;;;;;;3.17;69.90;100459.16;4484691;31;34666;-80
2022/01/27 11:31:29;;;;;;;21.00;9.52;;;;;;;3.47;68.78;100474.31;4479150;31;34740;-82
2022/01/27 11:34:15;;;;;;;25.17;13.15;;;;;;;3.42;69.71;100466.12;4471724;31;35672;-82
2022/01/27 11:37:05;;;;;;;24.87;9.88;;;;;;;3.31;69.55;100454.25;4475833;31;34291;-78
2022/01/27 11:39:54;;;;;;;23.08;10.85;;;;;;;3.65;68.80;100440.78;4486279;31;36186;-77
2022/01/27 11:43:01;;;;;;;26.45;11.88;;;;;;;3.46;68.85;100451.81;4487378;31;35963;-77
2022/01/27 11:45:49;;;;;;;24.52;10.32;;;;;;;3.57;68.99;100440.09;4472421;31;35231;-76
2022/01/27 11:48:35;;;;;;;26.08;11.10;;;;;;;4.00;67.33;100425.06;4475556;31;34203;-77
2022/01/27 11:51:22;;;;;;;26.77;12.45;;;;;;;3.60;68.09;100426.06;4486790;31;34344;-78
2022/01/27 11:54:25;;;;;;;20.37;10.43;;;;;;;3.36;68.23;100422.69;4482470;31;33742;-78
2022/01/27 11:57:54;;;;;;;23.25;11.25;;;;;;;3.57;67.80;100410.28;4489597;31;34651;-79
2022/01/27 12:01:00;;;;;;;24.25;10.57;;;;;;;3.63;67.95;100411.19;4417170;32;34147;-79
2022/01/27 12:04:09;;;;;;;26.05;11.65;;;;;;;3.69;67.82;100412.91;4417507;32;35168;-80
2022/01/27 12:06:56;;;;;;;24.52;12.05;;;;;;;3.52;67.13;100407.47;4480922;31;35011;-79
2022/01/27 12:09:45;;;;;;;21.58;11.75;;;;;;;3.60;67.20;100412.50;4488631;31;35566;-80
2022/01/27 12:12:34;;;;;;;30.17;12.65;;;;;;;3.52;67.85;100414.78;4496976;31;33721;-82
2022/01/27 12:15:20;;;;;;;27.30;14.00;;;;;;;3.73;67.55;100407.81;4480431;31;35271;-81
2022/01/27 12:18:34;;;;;;;25.25;11.10;;;;;;;3.80;66.43;100409.28;4485769;31;33951;-78
2022/01/27 12:21:30;;;;;;;24.27;10.75;;;;;;;4.02;66.10;100412.06;4461840;31;35171;-82
2022/01/27 12:24:28;;;;;;;23.45;11.35;;;;;;;4.19;65.92;100409.34;4478675;31;33916;-79
2022/01/27 12:27:18;;;;;;;23.92;11.80;;;;;;;3.89;66.55;100408.88;4487264;31;34742;-81
2022/01/27 12:30:25;;;;;;;25.48;12.45;;;;;;;3.56;67.66;100403.22;4492457;31;34995;-82
2022/01/27 12:33:11;;;;;;;23.80;10.68;;;;;;;3.59;67.97;100401.94;4493558;31;35348;-81
2022/01/27 12:35:57;;;;;;;24.95;12.02;;;;;;;3.48;68.17;100400.94;4493345;31;35441;-81
2022/01/27 12:38:44;;;;;;;29.08;15.10;;;;;;;3.48;68.58;100390.09;4494756;31;34874;-79
2022/01/27 12:41:37;;;;;;;26.60;11.25;;;;;;;3.56;68.65;100381.56;4489866;31;34934;-80
2022/01/27 12:44:30;;;;;;;25.73;12.40;;;;;;;3.88;67.85;100372.81;4493245;31;35475;-78
2022/01/27 12:47:16;;;;;;;27.42;12.48;;;;;;;3.67;68.74;100381.69;4488987;31;34234;-77
2022/01/27 12:50:12;;;;;;;27.75;11.82;;;;;;;4.08;67.56;100360.62;4484053;31;34581;-77
2022/01/27 12:53:07;;;;;;;28.35;13.18;;;;;;;4.14;67.42;100365.87;4480565;31;35974;-79
2022/01/27 12:55:54;;;;;;;27.70;12.63;;;;;;;4.38;67.39;100362.91;4473056;31;35445;-77
2022/01/27 12:58:40;;;;;;;28.25;12.23;;;;;;;4.75;66.12;100346.78;4484528;31;34275;-77
2022/01/27 13:01:33;;;;;;;27.35;10.63;;;;;;;4.82;64.95;100344.69;4479104;31;34328;-77
2022/01/27 13:04:23;;;;;;;24.98;11.90;;;;;;;5.03;63.70;100329.41;4476697;31;34947;-77
2022/01/27 13:07:10;;;;;;;24.05;10.90;;;;;;;4.65;64.23;100324.97;4464545;31;33495;-77
2022/01/27 13:10:01;;;;;;;24.48;11.93;;;;;;;4.41;65.80;100319.84;4484103;31;34164;-78
2022/01/27 13:12:53;;;;;;;23.10;10.60;;;;;;;4.61;65.48;100316.53;4492920;31;35226;-80
2022/01/27 13:15:40;;;;;;;27.25;12.00;;;;;;;5.16;63.71;100290.97;4474389;31;35124;-79
2022/01/27 13:18:37;;;;;;;22.23;11.25;;;;;;;4.87;64.36;100293.16;4477543;31;34316;-77
2022/01/27 13:21:32;;;;;;;25.48;11.25;;;;;;;4.97;64.99;100289.72;4493129;31;34274;-77
2022/01/27 13:24:19;;;;;;;27.08;12.48;;;;;;;4.97;66.00;100289.72;4485867;31;34713;-77
2022/01/27 13:27:08;;;;;;;28.90;12.70;;;;;;;4.65;67.17;100286.97;4477900;31;35891;-77
2022/01/27 13:29:58;;;;;;;29.85;12.52;;;;;;;4.72;66.75;100291.13;4485372;31;34896;-77
2022/01/27 13:32:45;;;;;;;31.87;12.70;;;;;;;4.82;66.98;100284.97;4475468;31;34441;-77
2022/01/27 13:35:35;;;;;;;29.60;13.15;;;;;;;5.02;66.09;100283.53;4481109;31;34590;-77
2022/01/27 13:39:12;;;;;;;24.08;12.10;;;;;;;5.24;65.18;100275.28;4468545;31;35630;-77
2022/01/27 13:41:32;;;;;;;23.98;12.50;;;;;;;4.74;67.05;100290.84;4483392;31;34653;-82
2022/01/27 13:44:20;;;;;;;31.00;12.68;;;;;;;4.41;67.81;100281.84;4480555;31;35074;-79
2022/01/27 13:47:06;;;;;;;30.02;12.98;;;;;;;4.73;67.03;100283.81;4487841;31;35157;-81
2022/01/27 13:49:55;;;;;;;26.85;11.55;;;;;;;4.99;65.37;100281.31;4488276;31;34918;-78
2022/01/27 13:52:49;;;;;;;28.27;12.45;;;;;;;5.11;65.06;100279.25;4473597;31;35111;-78